createdAt,value
2022-11-24T00:00:53.989Z,21.87
2022-11-24T00:03:21.660Z,20.53
2022-11-24T00:05:49.091Z,22.40
2022-11-24T00:08:16.423Z,21.20
2022-11-24T00:10:44.048Z,21.87
2022-11-24T00:13:11.406Z,20.40
2022-11-24T00:15:38.758Z,20.63
2022-11-24T00:18:06.379Z,20.47
2022-11-24T00:20:33.716Z,20.23
2022-11-24T00:23:01.590Z,19.90
2022-11-24T00:25:29.181Z,22.50
2022-11-24T00:27:56.528Z,21.73
2022-11-24T00:30:23.935Z,21.67
2022-11-24T00:32:52.804Z,23.47
2022-11-24T00:35:20.150Z,22.30
2022-11-24T00:37:47.523Z,22.53
2022-11-24T00:40:15.145Z,22.00
2022-11-24T00:42:42.481Z,20.53
2022-11-24T00:45:13.756Z,21.53
2022-11-24T00:47:41.889Z,21.40
2022-11-24T00:50:09.586Z,20.53
2022-11-24T00:52:36.942Z,20.43
2022-11-24T00:55:04.854Z,18.97
2022-11-24T00:57:35.014Z,20.00
2022-11-24T01:00:02.399Z,20.03
2022-11-24T01:02:30.054Z,19.37
2022-11-24T01:04:57.443Z,21.07
2022-11-24T01:07:24.796Z,22.77
2022-11-24T01:09:52.448Z,24.20
2022-11-24T01:12:19.814Z,24.03
2022-11-24T01:14:47.168Z,24.13
2022-11-24T01:17:14.731Z,23.37
2022-11-24T01:19:42.089Z,24.23
2022-11-24T01:22:09.426Z,26.43
2022-11-24T01:24:37.022Z,26.87
2022-11-24T01:27:04.371Z,27.40
2022-11-24T01:29:31.737Z,30.87
2022-11-24T01:31:59.452Z,32.70
2022-11-24T01:34:26.759Z,32.80
2022-11-24T01:36:54.154Z,32.07
2022-11-24T01:39:21.803Z,31.23
2022-11-24T01:41:49.154Z,30.70
2022-11-24T01:44:23.576Z,32.60
2022-11-24T01:47:29.851Z,31.07
2022-11-24T01:52:31.467Z,28.67
2022-11-24T01:55:02.099Z,30.00
2022-11-24T01:57:32.213Z,31.80
2022-11-24T02:00:07.787Z,31.97
2022-11-24T02:02:41.635Z,32.40
2022-11-24T02:05:21.867Z,31.27
2022-11-24T02:07:49.271Z,31.80
2022-11-24T02:10:16.916Z,31.17
2022-11-24T02:12:46.906Z,33.23
2022-11-24T02:15:17.800Z,31.03
2022-11-24T02:17:45.481Z,30.87
2022-11-24T02:20:13.013Z,32.53
2022-11-24T02:22:49.268Z,31.10
2022-11-24T02:25:36.115Z,32.83
2022-11-24T02:28:07.068Z,33.50
2022-11-24T02:30:35.341Z,33.47
2022-11-24T02:33:02.987Z,33.63
2022-11-24T02:35:30.338Z,33.90
2022-11-24T02:37:57.933Z,35.97
2022-11-24T02:40:26.901Z,33.40
2022-11-24T02:42:56.375Z,35.50
2022-11-24T02:45:24.495Z,35.07
2022-11-24T02:47:51.862Z,35.73
2022-11-24T02:50:19.211Z,35.30
2022-11-24T02:52:46.847Z,34.47
2022-11-24T02:55:14.262Z,33.40
2022-11-24T02:57:41.635Z,34.80
2022-11-24T03:00:09.859Z,35.67
2022-11-24T03:02:37.251Z,34.33
2022-11-24T03:05:04.950Z,35.07
2022-11-24T03:07:32.637Z,34.73
2022-11-24T03:10:00.310Z,36.67
2022-11-24T03:12:27.637Z,34.23
2022-11-24T03:14:55.246Z,33.37
2022-11-24T03:17:22.595Z,33.23
2022-11-24T03:19:49.925Z,33.20
2022-11-24T03:22:17.529Z,33.13
2022-11-24T03:24:44.944Z,33.87
2022-11-24T03:27:12.274Z,32.90
2022-11-24T03:29:39.869Z,36.17
2022-11-24T03:32:07.274Z,37.03
2022-11-24T03:34:34.827Z,34.03
2022-11-24T03:37:02.710Z,34.57
2022-11-24T03:39:30.038Z,34.00
2022-11-24T03:41:57.374Z,33.67
2022-11-24T03:44:24.993Z,31.60
2022-11-24T03:46:52.342Z,33.97
2022-11-24T03:49:19.707Z,32.97
2022-11-24T03:51:47.332Z,32.90
2022-11-24T03:54:14.678Z,34.57
2022-11-24T03:56:42.058Z,32.73
2022-11-24T03:59:09.669Z,33.57
2022-11-24T04:01:37.076Z,35.07
2022-11-24T04:04:04.873Z,33.47
2022-11-24T04:06:32.276Z,34.27
2022-11-24T04:09:00.460Z,34.53
2022-11-24T04:11:46.734Z,31.47
2022-11-24T04:14:14.118Z,32.60
2022-11-24T04:16:41.829Z,32.80
2022-11-24T04:19:09.199Z,33.63
2022-11-24T04:21:36.673Z,36.70
2022-11-24T04:24:04.311Z,36.77
2022-11-24T04:26:31.691Z,38.67
2022-11-24T04:28:59.071Z,36.10
2022-11-24T04:31:26.747Z,37.97
2022-11-24T04:33:54.163Z,33.00
2022-11-24T04:36:21.509Z,37.70
2022-11-24T04:39:25.775Z,37.53
2022-11-24T04:41:36.465Z,39.47
2022-11-24T04:44:04.109Z,38.93
2022-11-24T04:46:31.488Z,36.80
2022-11-24T04:48:58.874Z,38.70
2022-11-24T04:51:26.484Z,38.67
2022-11-24T04:53:53.835Z,37.47
2022-11-24T04:56:21.223Z,36.87
2022-11-24T04:58:49.411Z,37.50
2022-11-24T05:01:16.856Z,40.63
2022-11-24T05:03:44.380Z,38.27
2022-11-24T05:06:12.064Z,37.47
2022-11-24T05:08:39.352Z,38.23
2022-11-24T05:11:06.754Z,37.50
2022-11-24T05:13:34.327Z,34.93
2022-11-24T05:16:01.779Z,39.67
2022-11-24T05:18:29.280Z,39.07
2022-11-24T05:20:57.664Z,39.03
2022-11-24T05:23:25.055Z,37.53
2022-11-24T05:25:52.854Z,34.97
2022-11-24T05:28:20.447Z,35.23
2022-11-24T05:30:47.742Z,37.00
2022-11-24T05:33:19.297Z,35.67
2022-11-24T05:35:47.669Z,36.53
2022-11-24T05:38:15.849Z,35.97
2022-11-24T05:40:43.479Z,34.73
2022-11-24T05:43:14.695Z,36.10
2022-11-24T05:45:42.424Z,35.10
2022-11-24T05:48:11.960Z,35.60
2022-11-24T05:50:39.639Z,35.93
2022-11-24T05:53:08.627Z,32.97
2022-11-24T05:55:36.194Z,33.27
2022-11-24T05:58:04.948Z,32.07
2022-11-24T06:00:32.511Z,31.37
2022-11-24T06:03:00.382Z,35.33
2022-11-24T06:05:28.429Z,31.70
2022-11-24T06:07:55.865Z,32.87
2022-11-24T06:10:26.347Z,32.20
2022-11-24T06:12:54.337Z,32.67
2022-11-24T06:15:21.728Z,34.53
2022-11-24T06:17:54.163Z,32.73
2022-11-24T06:20:22.165Z,33.13
2022-11-24T06:22:49.786Z,31.33
2022-11-24T06:25:17.268Z,30.63
2022-11-24T06:27:44.772Z,34.63
2022-11-24T06:30:13.029Z,32.13
2022-11-24T06:32:49.129Z,31.93
2022-11-24T06:35:17.545Z,31.93
2022-11-24T06:37:45.894Z,32.97
2022-11-24T06:40:13.234Z,31.10
2022-11-24T06:42:40.806Z,31.33
2022-11-24T06:45:09.628Z,32.17
2022-11-24T06:47:37.316Z,31.30
2022-11-24T06:50:05.292Z,33.47
2022-11-24T06:52:32.682Z,31.97
2022-11-24T06:55:00.021Z,31.10
2022-11-24T06:57:29.610Z,32.27
2022-11-24T06:59:58.431Z,32.67
2022-11-24T07:02:26.130Z,29.53
2022-11-24T07:04:55.948Z,31.63
2022-11-24T07:07:23.651Z,30.20
2022-11-24T07:09:51.078Z,29.73
2022-11-24T07:12:18.689Z,29.43
2022-11-24T07:14:46.040Z,29.17
2022-11-24T07:17:13.411Z,30.03
2022-11-24T07:19:40.999Z,28.93
2022-11-24T07:22:08.325Z,30.57
2022-11-24T07:24:35.914Z,29.97
2022-11-24T07:27:03.767Z,28.03
2022-11-24T07:29:31.063Z,28.90
2022-11-24T07:32:03.675Z,27.87
2022-11-24T07:34:33.219Z,28.67
2022-11-24T07:37:00.781Z,28.70
2022-11-24T07:39:28.111Z,26.97
2022-11-24T07:41:55.796Z,27.80
2022-11-24T07:44:23.597Z,24.93
2022-11-24T07:46:51.358Z,26.33
2022-11-24T07:49:19.363Z,27.07
2022-11-24T07:51:55.599Z,25.70
2022-11-24T07:54:52.343Z,25.47
2022-11-24T07:57:34.603Z,28.23
2022-11-24T08:00:06.067Z,27.23
2022-11-24T08:02:33.743Z,27.67
2022-11-24T08:05:01.129Z,28.87
2022-11-24T08:07:28.964Z,25.67
2022-11-24T08:09:56.575Z,27.83
2022-11-24T08:12:24.021Z,25.83
2022-11-24T08:14:51.439Z,27.67
2022-11-24T08:17:19.082Z,27.83
2022-11-24T08:19:46.428Z,27.90
2022-11-24T08:22:13.898Z,27.53
2022-11-24T08:24:46.471Z,26.57
2022-11-24T08:27:16.597Z,28.27
2022-11-24T08:29:44.236Z,27.70
2022-11-24T08:32:15.046Z,29.10
2022-11-24T08:34:45.090Z,28.20
2022-11-24T08:37:12.455Z,26.77
2022-11-24T08:39:39.768Z,29.70
2022-11-24T08:42:07.333Z,28.47
2022-11-24T08:44:34.795Z,29.80
2022-11-24T08:47:02.240Z,27.60
2022-11-24T08:49:29.813Z,29.83
2022-11-24T08:51:57.671Z,31.07
2022-11-24T08:54:25.634Z,27.73
2022-11-24T08:56:53.221Z,26.07
2022-11-24T08:59:20.700Z,27.83
2022-11-24T09:01:49.194Z,27.87
2022-11-24T09:04:17.024Z,27.60
2022-11-24T09:06:44.516Z,26.80
2022-11-24T09:09:11.894Z,28.47
2022-11-24T09:11:39.492Z,28.13
2022-11-24T09:14:06.851Z,26.40
2022-11-24T09:16:34.308Z,26.87
2022-11-24T09:19:03.732Z,25.70
2022-11-24T09:21:31.979Z,26.87
2022-11-24T09:23:59.289Z,28.23
2022-11-24T09:26:28.564Z,27.97
2022-11-24T09:28:56.280Z,28.17
2022-11-24T09:31:25.399Z,27.23
2022-11-24T09:33:53.172Z,27.90
2022-11-24T09:36:20.614Z,27.63
2022-11-24T09:38:48.059Z,29.53
2022-11-24T09:41:18.259Z,26.47
2022-11-24T09:43:51.455Z,29.53
2022-11-24T09:46:31.324Z,25.23
2022-11-24T09:48:58.720Z,25.67
2022-11-24T09:51:29.285Z,27.97
2022-11-24T09:53:57.964Z,25.93
2022-11-24T09:56:27.599Z,26.53
2022-11-24T09:58:59.428Z,27.90
2022-11-24T10:01:31.583Z,26.67
2022-11-24T10:04:05.663Z,27.37
2022-11-24T10:06:40.783Z,23.50
2022-11-24T10:09:17.261Z,24.20
2022-11-24T10:11:58.521Z,26.35
2022-11-24T10:14:35.073Z,25.00
2022-11-24T10:17:09.961Z,26.65
2022-11-24T10:20:03.987Z,26.63
2022-11-24T10:22:35.451Z,22.70
2022-11-24T10:25:25.059Z,24.40
2022-11-24T10:27:57.420Z,24.53
2022-11-24T10:30:25.046Z,25.27
2022-11-24T10:33:08.011Z,22.43
2022-11-24T10:35:45.411Z,24.80
2022-11-24T10:38:28.203Z,23.07
2022-11-24T10:41:10.335Z,22.10
2022-11-24T10:43:37.680Z,23.00
2022-11-24T10:46:11.503Z,24.90
2022-11-24T10:48:45.890Z,24.77
2022-11-24T10:51:44.379Z,24.47
2022-11-24T10:54:20.139Z,23.03
2022-11-24T10:56:48.147Z,23.05
2022-11-24T10:59:29.810Z,23.83
2022-11-24T11:01:57.857Z,24.37
2022-11-24T11:04:26.275Z,20.73
2022-11-24T11:07:16.613Z,23.93
2022-11-24T11:09:44.939Z,21.67
2022-11-24T11:12:42.560Z,19.33
2022-11-24T11:15:23.176Z,17.07
2022-11-24T11:17:52.292Z,20.00
2022-11-24T11:20:23.975Z,18.00
2022-11-24T11:22:51.295Z,19.83
2022-11-24T11:25:19.636Z,19.10
2022-11-24T11:27:48.317Z,18.53
2022-11-24T11:36:12.371Z,16.83
2022-11-24T11:38:40.141Z,16.50
2022-11-24T11:41:10.876Z,14.97
2022-11-24T11:43:40.806Z,15.50
2022-11-24T11:46:16.321Z,14.37
2022-11-24T11:48:46.423Z,15.00
2022-11-24T11:51:35.779Z,15.03
2022-11-24T11:54:24.966Z,13.93
2022-11-24T11:57:02.449Z,14.83
2022-11-24T11:59:43.237Z,13.67
2022-11-24T12:02:53.079Z,13.90
2022-11-24T12:05:41.651Z,14.17
2022-11-24T12:08:56.039Z,13.13
2022-11-24T12:11:35.981Z,13.23
2022-11-24T12:14:21.439Z,14.03
2022-11-24T12:16:58.748Z,12.95
2022-11-24T12:19:38.181Z,13.90
2022-11-24T12:22:21.235Z,15.13
2022-11-24T12:24:54.320Z,12.97
2022-11-24T12:27:39.638Z,11.83
2022-11-24T12:30:16.850Z,11.73
2022-11-24T12:33:05.662Z,12.47
2022-11-24T12:35:36.528Z,12.17
2022-11-24T12:38:35.793Z,11.03
2022-11-24T12:41:41.707Z,11.30
2022-11-24T12:44:36.035Z,11.03
2022-11-24T12:47:14.495Z,10.83
2022-11-24T12:49:51.477Z,12.07
2022-11-24T12:54:51.253Z,10.67
2022-11-24T12:57:29.596Z,10.93
2022-11-24T13:00:21.846Z,10.10
2022-11-24T13:03:20.402Z,10.67
2022-11-24T13:05:58.746Z,10.57
2022-11-24T13:08:27.060Z,10.23
2022-11-24T13:10:56.549Z,11.50
2022-11-24T13:13:56.789Z,11.13
2022-11-24T13:16:53.565Z,10.93
2022-11-24T13:19:17.159Z,12.37
2022-11-24T13:21:49.979Z,11.60
2022-11-24T13:24:17.860Z,12.70
2022-11-24T13:27:12.739Z,10.37
2022-11-24T13:29:51.750Z,10.63
2022-11-24T13:32:19.186Z,10.93
2022-11-24T13:34:49.823Z,12.03
2022-11-24T13:37:31.577Z,10.43
2022-11-24T13:40:12.423Z,9.88
2022-11-24T13:42:54.707Z,10.82
2022-11-24T13:45:45.127Z,10.30
2022-11-24T13:48:22.766Z,10.67
2022-11-24T13:50:50.605Z,10.43
2022-11-24T13:53:20.990Z,10.75
2022-11-24T13:55:59.522Z,10.38
2022-11-24T13:58:40.761Z,11.60
2022-11-24T14:01:20.428Z,10.33
2022-11-24T14:04:28.648Z,11.20
2022-11-24T14:06:52.200Z,11.10
2022-11-24T14:09:34.110Z,11.67
2022-11-24T14:12:06.292Z,11.05
2022-11-24T14:14:34.151Z,9.87
2022-11-24T14:17:16.793Z,11.27
2022-11-24T14:19:46.265Z,12.17
2022-11-24T14:22:31.468Z,11.80
2022-11-24T14:25:00.267Z,10.83
2022-11-24T14:27:32.749Z,10.95
2022-11-24T14:30:10.392Z,11.80
2022-11-24T14:32:40.619Z,15.20
2022-11-24T14:35:28.060Z,16.13
2022-11-24T14:37:55.703Z,13.70
2022-11-24T14:40:40.109Z,12.00
2022-11-24T14:43:21.716Z,11.20
2022-11-24T14:46:03.779Z,11.97
2022-11-24T14:48:33.461Z,13.47
2022-11-24T14:51:23.230Z,14.40
2022-11-24T14:53:52.355Z,12.57
2022-11-24T14:56:30.400Z,14.17
2022-11-24T14:58:57.953Z,13.37
2022-11-24T15:01:28.563Z,12.50
2022-11-24T15:04:38.786Z,12.00
2022-11-24T15:07:27.517Z,14.97
2022-11-24T15:09:58.022Z,12.80
2022-11-24T15:12:30.626Z,12.27
2022-11-24T15:15:20.304Z,12.27
2022-11-24T15:17:52.682Z,12.67
2022-11-24T15:20:38.193Z,14.33
2022-11-24T15:23:20.439Z,14.60
2022-11-24T15:25:47.844Z,14.13
2022-11-24T15:28:15.481Z,13.47
2022-11-24T15:30:42.784Z,16.80
2022-11-24T15:33:13.569Z,23.90
2022-11-24T15:35:41.175Z,23.10
2022-11-24T15:38:08.627Z,13.87
2022-11-24T15:40:39.598Z,14.80
2022-11-24T15:43:31.859Z,15.23
2022-11-24T15:45:59.906Z,15.53
2022-11-24T15:48:27.886Z,16.73
2022-11-24T15:50:55.235Z,15.10
2022-11-24T15:53:36.633Z,15.87
2022-11-24T15:56:06.000Z,16.03
2022-11-24T15:58:33.368Z,16.10
2022-11-24T16:01:00.739Z,13.80
2022-11-24T16:06:23.668Z,15.13
2022-11-24T16:08:55.532Z,15.97
2022-11-24T16:11:23.049Z,15.23
2022-11-24T16:13:53.459Z,14.83
2022-11-24T16:16:22.637Z,14.93
2022-11-24T16:18:50.115Z,16.00
2022-11-24T16:21:17.457Z,15.23
2022-11-24T16:23:45.652Z,14.80
2022-11-24T16:26:13.028Z,13.27
2022-11-24T16:28:40.773Z,13.77
2022-11-24T16:31:08.450Z,15.40
2022-11-24T16:33:38.639Z,11.80
2022-11-24T16:36:06.416Z,14.13
2022-11-24T16:38:35.534Z,13.13
2022-11-24T16:41:02.904Z,12.80
2022-11-24T16:43:30.266Z,13.50
2022-11-24T16:46:27.345Z,13.03
2022-11-24T16:48:55.618Z,13.93
2022-11-24T16:51:23.324Z,13.30
2022-11-24T16:54:00.580Z,13.87
2022-11-24T16:56:28.544Z,14.10
2022-11-24T16:58:55.949Z,13.93
2022-11-24T17:01:23.658Z,14.27
2022-11-24T17:03:51.347Z,14.20
2022-11-24T17:06:18.738Z,13.57
2022-11-24T17:08:46.376Z,12.60
2022-11-24T17:11:18.240Z,13.03
2022-11-24T17:13:45.927Z,13.60
2022-11-24T17:16:18.057Z,13.20
2022-11-24T17:18:45.527Z,13.87
2022-11-24T17:21:17.893Z,14.70
2022-11-24T17:23:45.527Z,16.47
2022-11-24T17:26:16.845Z,16.37
2022-11-24T17:28:44.195Z,18.47
2022-11-24T17:31:32.152Z,17.60
2022-11-24T17:34:00.031Z,16.60
2022-11-24T17:36:31.221Z,16.97
2022-11-24T17:39:05.277Z,16.00
2022-11-24T17:41:33.040Z,14.30
2022-11-24T17:44:00.367Z,14.10
2022-11-24T17:46:28.430Z,16.53
2022-11-24T17:48:56.159Z,14.20
2022-11-24T17:51:24.414Z,15.80
2022-11-24T17:53:52.659Z,15.00
2022-11-24T17:56:23.407Z,15.47
2022-11-24T17:58:54.431Z,16.13
2022-11-24T18:01:22.212Z,16.00
2022-11-24T18:03:53.424Z,16.67
2022-11-24T18:06:24.058Z,16.23
2022-11-24T18:08:51.805Z,18.40
2022-11-24T18:11:24.632Z,19.57
2022-11-24T18:14:00.789Z,20.20
2022-11-24T18:16:30.423Z,22.17
2022-11-24T18:19:14.640Z,18.70
2022-11-24T18:21:43.704Z,19.67
2022-11-24T18:24:11.809Z,18.87
2022-11-24T18:26:39.806Z,19.13
2022-11-24T18:29:07.875Z,20.23
2022-11-24T18:31:36.114Z,19.87
2022-11-24T18:34:05.016Z,21.40
2022-11-24T18:36:32.465Z,23.40
2022-11-24T18:39:04.069Z,21.80
2022-11-24T18:41:31.893Z,25.80
2022-11-24T18:44:02.394Z,26.23
2022-11-24T18:46:29.899Z,19.63
2022-11-24T18:48:57.232Z,21.47
2022-11-24T18:51:25.231Z,21.27
2022-11-24T18:53:58.159Z,21.23
2022-11-24T18:56:26.111Z,21.60
2022-11-24T18:58:54.017Z,25.13
2022-11-24T19:01:25.844Z,24.73
2022-11-24T19:03:54.916Z,22.87
2022-11-24T19:06:33.005Z,25.13
2022-11-24T19:09:05.397Z,24.20
2022-11-24T19:11:37.116Z,23.20
2022-11-24T19:14:05.570Z,23.73
2022-11-24T19:16:33.151Z,22.53
2022-11-24T19:19:01.710Z,24.43
2022-11-24T19:21:33.655Z,26.07
2022-11-24T19:24:04.874Z,26.17
2022-11-24T19:26:35.089Z,24.67
2022-11-24T19:29:03.554Z,25.77
2022-11-24T19:31:31.065Z,20.80
2022-11-24T19:33:59.770Z,20.67
2022-11-24T19:36:27.275Z,21.23
2022-11-24T19:38:55.656Z,17.33
2022-11-24T19:41:28.602Z,17.07
2022-11-24T19:43:56.658Z,17.27
2022-11-24T19:46:27.121Z,17.07
2022-11-24T19:48:56.923Z,20.70
2022-11-24T19:51:26.672Z,18.87
2022-11-24T19:53:54.139Z,20.07
2022-11-24T19:56:22.957Z,18.43
2022-11-24T19:58:50.948Z,19.90
2022-11-24T20:01:19.177Z,21.10
2022-11-24T20:03:49.473Z,21.37
2022-11-24T20:06:16.845Z,22.17
2022-11-24T20:08:44.392Z,21.53
2022-11-24T20:11:16.005Z,28.10
2022-11-24T20:13:44.471Z,34.20
2022-11-24T20:16:16.307Z,29.90
2022-11-24T20:18:44.939Z,32.87
2022-11-24T20:21:17.171Z,34.03
2022-11-24T20:23:45.296Z,29.47
2022-11-24T20:26:14.983Z,25.30
2022-11-24T20:28:42.518Z,30.97
2022-11-24T20:31:14.277Z,28.23
2022-11-24T20:33:42.019Z,30.10
2022-11-24T20:36:10.901Z,26.17
2022-11-24T20:38:38.504Z,27.47
2022-11-24T20:41:13.376Z,28.43
2022-11-24T20:43:40.818Z,27.60
2022-11-24T20:46:10.095Z,28.00
2022-11-24T20:48:37.540Z,28.20
2022-11-24T20:51:12.620Z,26.67
2022-11-24T20:53:40.287Z,24.97
2022-11-24T20:56:24.189Z,23.70
2022-11-24T20:58:51.970Z,26.47
2022-11-24T21:01:25.829Z,24.60
2022-11-24T21:03:54.844Z,22.77
2022-11-24T21:06:22.406Z,24.77
2022-11-24T21:08:50.521Z,20.90
2022-11-24T21:11:18.280Z,19.10
2022-11-24T21:13:46.074Z,21.10
2022-11-24T21:16:18.289Z,21.97
2022-11-24T21:18:46.919Z,21.93
2022-11-24T21:21:14.401Z,21.27
2022-11-24T21:23:41.739Z,20.93
2022-11-24T21:26:13.308Z,20.90
2022-11-24T21:28:42.843Z,19.73
2022-11-24T21:31:15.162Z,18.80
2022-11-24T21:33:46.725Z,18.73
2022-11-24T21:36:15.470Z,17.67
2022-11-24T21:38:42.913Z,18.27
2022-11-24T21:41:11.068Z,18.20
2022-11-24T21:43:38.703Z,17.43
2022-11-24T21:46:07.516Z,16.13
2022-11-24T21:48:35.786Z,17.73
2022-11-24T21:51:05.596Z,16.57
2022-11-24T21:53:34.543Z,17.13
2022-11-24T21:56:03.167Z,18.57
2022-11-24T21:58:30.938Z,17.60
2022-11-24T22:01:05.633Z,19.50
2022-11-24T22:03:33.274Z,18.87
2022-11-24T22:06:00.668Z,18.17
2022-11-24T22:08:28.754Z,17.93
2022-11-24T22:11:11.029Z,17.93
2022-11-24T22:13:38.348Z,16.87
2022-11-24T22:16:07.741Z,18.17
2022-11-24T22:18:36.759Z,18.27
2022-11-24T22:21:04.755Z,21.70
2022-11-24T22:23:32.679Z,19.13
2022-11-24T22:26:07.833Z,18.77
2022-11-24T22:28:35.695Z,18.03
2022-11-24T22:31:04.676Z,20.17
2022-11-24T22:33:32.200Z,19.67
2022-11-24T22:35:59.963Z,17.07
2022-11-24T22:38:27.568Z,18.03
2022-11-24T22:40:55.045Z,19.07
2022-11-24T22:43:23.183Z,19.33
2022-11-24T22:45:50.670Z,17.03
2022-11-24T22:48:18.039Z,17.40
2022-11-24T22:50:45.640Z,17.47
2022-11-24T22:53:12.926Z,16.13
2022-11-24T22:55:40.254Z,17.30
2022-11-24T22:58:07.844Z,18.67
2022-11-24T23:00:35.174Z,17.73
2022-11-24T23:03:02.550Z,17.93
2022-11-24T23:05:32.280Z,17.27
2022-11-24T23:07:59.611Z,16.83
2022-11-24T23:10:26.931Z,17.27
2022-11-24T23:12:55.296Z,16.53
2022-11-24T23:15:22.641Z,18.30
2022-11-24T23:17:49.953Z,17.63
2022-11-24T23:20:17.651Z,18.00
2022-11-24T23:22:45.056Z,17.03
2022-11-24T23:25:12.340Z,17.53
2022-11-24T23:27:39.950Z,16.43
2022-11-24T23:30:07.865Z,18.33
2022-11-24T23:32:35.200Z,17.93
2022-11-24T23:35:02.800Z,16.33
2022-11-24T23:37:52.224Z,18.23
2022-11-24T23:40:17.731Z,16.90
2022-11-24T23:42:48.357Z,18.97
2022-11-24T23:45:15.761Z,17.27
2022-11-24T23:47:43.515Z,17.27
2022-11-24T23:50:10.947Z,16.90
2022-11-24T23:52:38.296Z,16.27
2022-11-24T23:55:06.135Z,16.87
2022-11-24T23:57:33.473Z,19.00
